Bezoek onze andere website:

De Wijde Wereld



Sneeuw/IJzel/Bevriezing van: 22-01-2019 11:00 tot: 19:00 waarschuwing voor: Sneeuw/IJzel/Bevriezing niveau: Geel info button

METAR rapporten vliegvelden

   
EHBK - Maastricht
Gewijzigd: 22-01-2019 06:25
Gedeeltelijk bewolkt  
Gedeeltelijk bewolkt  
   Wind: Zuiden 0 km/h
Wind: Zuiden 0 km/h
Temperatuur: -5°C
Voelt als: -11°C
Dauwpunt: -8°C
Vochtigheid: 80%
Barometer: 1010 hPa
Bewolking: Partly Cloudy
Zicht: meer dan 10 km
Bewolking: Gedeeltelijk bewolkt m
EHBK 220525Z AUTO 19008KT 9999 NSC M05/M08 Q1010 NOSIG
LSZA - Lugano
Gewijzigd: 22-01-2019 06:50
Licht bewolkt  
Licht bewolkt  
   Wind: varieert 0 km/h
Wind: varieert 0 km/h
Temperatuur: -4°C
Dauwpunt: -6°C
Vochtigheid: 86%
Barometer: 1011 hPa
Bewolking: Few Clouds
Zicht: meer dan 10 km
Bewolking: Licht bewolkt 3352.8 m
LSZA 220550Z VRB02KT 9999 FEW110 M04/M06 Q1011 NOSIG
LIRA - Rome
Gewijzigd: 22-01-2019 06:20
Helder  
Helder  
   Wind: NNO 0 km/h
Wind: NNO 0 km/h
Temperatuur: 6°C
Voelt als: 3°C
Dauwpunt: 5°C
Vochtigheid: 93%
Barometer: 1002 hPa
Zicht: meer dan 10 km
Bewolking: Helder m
LIRA 220520Z 02010KT CAVOK 06/05 Q1002
LPFR - Faro
Gewijzigd: 22-01-2019 06:30
Helder  
Helder  
   Wind: WNW 0 km/h
Wind: WNW 0 km/h
Temperatuur: 6°C
Voelt als: 4°C
Dauwpunt: 4°C
Vochtigheid: 87%
Barometer: 1023 hPa
Zicht: meer dan 10 km
Bewolking: Helder m
LPFR 220530Z 30006KT CAVOK 06/04 Q1023
EBCV - Mons/Bergen
Gewijzigd: 22-01-2019 06:25
Grotendeels bewolkt  
Grotendeels bewolkt  
   Wind: Zuiden 0 km/h
Wind: Zuiden 0 km/h
Temperatuur: -3°C
Voelt als: -9°C
Dauwpunt: -5°C
Vochtigheid: 86%
Barometer: 1010 hPa
Bewolking: Mostly Cloudy
Zicht: 6 km
Bewolking: Gedeeltelijk bewolkt 4267.2 m,
Grotendeels bewolkt 4876.8 m
EBCV 220525Z AUTO 18012KT 6000 SCT140/// BKN160/// M03/M05 Q1010 WHT
EBOS - Oostende
Gewijzigd: 22-01-2019 06:20
Grotendeels bewolkt  
Grotendeels bewolkt  
   Wind: Zuiden 0 km/h
Wind: Zuiden 0 km/h
Temperatuur: -1°C
Voelt als: -8°C
Dauwpunt: -4°C
Vochtigheid: 80%
Barometer: 1006 hPa
Bewolking: Mostly Cloudy
Zicht: 9 km
Bewolking: Gedeeltelijk bewolkt 1158.2 m,
Grotendeels bewolkt 1402.1 m
EBOS 220520Z 17015KT 9000 SCT038 BKN046 M01/M04 Q1006 TEMPO 4500 -FZRA BKN014

Script ontwikkeld door  Saratoga-weather.org Aangepast voor de template door  Weerstation Leuven

Apparatuur in gebruik:

Weerprogramma
Meteohub

Meteohub